sensor_id;sensor_type;location;lat;lon;timestamp;P1;durP1;ratioP1;P2;durP2;ratioP2
3085;SDS011;52812;48.960;9.108;2022-12-18T00:01:00;77.68;;;30.55;;
3085;SDS011;52812;48.960;9.108;2022-12-18T00:03:31;66.72;;;28.77;;
3085;SDS011;52812;48.960;9.108;2022-12-18T00:05:58;75.30;;;30.67;;
3085;SDS011;52812;48.960;9.108;2022-12-18T00:08:23;71.90;;;30.60;;
3085;SDS011;52812;48.960;9.108;2022-12-18T00:10:49;80.10;;;31.20;;
3085;SDS011;52812;48.960;9.108;2022-12-18T00:13:15;77.93;;;30.30;;
3085;SDS011;52812;48.960;9.108;2022-12-18T00:15:40;67.63;;;30.10;;
3085;SDS011;52812;48.960;9.108;2022-12-18T00:18:06;68.67;;;29.60;;
3085;SDS011;52812;48.960;9.108;2022-12-18T00:20:35;63.30;;;29.67;;
3085;SDS011;52812;48.960;9.108;2022-12-18T00:23:02;67.97;;;27.92;;
3085;SDS011;52812;48.960;9.108;2022-12-18T00:25:27;67.70;;;30.40;;
3085;SDS011;52812;48.960;9.108;2022-12-18T00:27:53;72.93;;;28.80;;
3085;SDS011;52812;48.960;9.108;2022-12-18T00:30:18;69.00;;;29.07;;
3085;SDS011;52812;48.960;9.108;2022-12-18T00:32:44;68.60;;;27.67;;
3085;SDS011;52812;48.960;9.108;2022-12-18T00:35:09;75.10;;;29.40;;
3085;SDS011;52812;48.960;9.108;2022-12-18T00:37:35;77.97;;;30.17;;
3085;SDS011;52812;48.960;9.108;2022-12-18T00:40:01;80.97;;;30.50;;
3085;SDS011;52812;48.960;9.108;2022-12-18T00:42:27;75.30;;;31.27;;
3085;SDS011;52812;48.960;9.108;2022-12-18T00:45:11;66.60;;;28.30;;
3085;SDS011;52812;48.960;9.108;2022-12-18T00:47:37;69.27;;;28.40;;
3085;SDS011;52812;48.960;9.108;2022-12-18T00:50:02;67.43;;;25.70;;
3085;SDS011;52812;48.960;9.108;2022-12-18T00:52:28;74.13;;;30.33;;
3085;SDS011;52812;48.960;9.108;2022-12-18T00:54:54;86.27;;;33.07;;
3085;SDS011;52812;48.960;9.108;2022-12-18T00:57:19;83.40;;;35.80;;
3085;SDS011;52812;48.960;9.108;2022-12-18T00:59:45;90.70;;;35.00;;
3085;SDS011;52812;48.960;9.108;2022-12-18T01:02:10;77.13;;;30.90;;
3085;SDS011;52812;48.960;9.108;2022-12-18T01:04:37;63.15;;;27.50;;
3085;SDS011;52812;48.960;9.108;2022-12-18T01:07:03;67.80;;;28.30;;
3085;SDS011;52812;48.960;9.108;2022-12-18T01:09:28;77.13;;;29.13;;
3085;SDS011;52812;48.960;9.108;2022-12-18T01:11:54;76.40;;;29.17;;
3085;SDS011;52812;48.960;9.108;2022-12-18T01:14:19;70.03;;;28.03;;
3085;SDS011;52812;48.960;9.108;2022-12-18T01:16:45;63.97;;;27.40;;
3085;SDS011;52812;48.960;9.108;2022-12-18T01:19:11;72.43;;;30.30;;
3085;SDS011;52812;48.960;9.108;2022-12-18T01:21:36;89.97;;;34.07;;
3085;SDS011;52812;48.960;9.108;2022-12-18T01:24:02;74.17;;;31.90;;
3085;SDS011;52812;48.960;9.108;2022-12-18T01:26:27;75.73;;;31.60;;
3085;SDS011;52812;48.960;9.108;2022-12-18T01:28:55;69.32;;;28.02;;
3085;SDS011;52812;48.960;9.108;2022-12-18T01:31:26;69.25;;;28.83;;
3085;SDS011;52812;48.960;9.108;2022-12-18T01:33:53;73.55;;;30.52;;
3085;SDS011;52812;48.960;9.108;2022-12-18T01:38:47;68.57;;;28.38;;
3085;SDS011;52812;48.960;9.108;2022-12-18T01:41:13;62.92;;;27.67;;
3085;SDS011;52812;48.960;9.108;2022-12-18T01:46:15;68.85;;;29.15;;
3085;SDS011;52812;48.960;9.108;2022-12-18T01:48:42;63.63;;;29.23;;
3085;SDS011;52812;48.960;9.108;2022-12-18T01:51:11;71.10;;;28.75;;
3085;SDS011;52812;48.960;9.108;2022-12-18T01:53:38;61.67;;;27.55;;
3085;SDS011;52812;48.960;9.108;2022-12-18T01:56:06;77.28;;;27.63;;
3085;SDS011;52812;48.960;9.108;2022-12-18T01:58:45;62.22;;;26.63;;
3085;SDS011;52812;48.960;9.108;2022-12-18T02:01:11;73.10;;;26.83;;
3085;SDS011;52812;48.960;9.108;2022-12-18T02:03:39;69.57;;;26.52;;
3085;SDS011;52812;48.960;9.108;2022-12-18T02:06:15;61.47;;;27.98;;
3085;SDS011;52812;48.960;9.108;2022-12-18T02:08:58;69.60;;;27.60;;
3085;SDS011;52812;48.960;9.108;2022-12-18T02:16:46;71.15;;;29.45;;
3085;SDS011;52812;48.960;9.108;2022-12-18T02:19:27;72.88;;;30.08;;
3085;SDS011;52812;48.960;9.108;2022-12-18T02:25:12;69.38;;;29.23;;
3085;SDS011;52812;48.960;9.108;2022-12-18T02:27:46;74.70;;;29.70;;
3085;SDS011;52812;48.960;9.108;2022-12-18T02:30:14;81.68;;;34.28;;
3085;SDS011;52812;48.960;9.108;2022-12-18T02:32:42;88.75;;;34.17;;
3085;SDS011;52812;48.960;9.108;2022-12-18T02:35:13;90.80;;;37.22;;
3085;SDS011;52812;48.960;9.108;2022-12-18T02:37:42;77.47;;;32.50;;
3085;SDS011;52812;48.960;9.108;2022-12-18T02:40:10;76.70;;;28.00;;
3085;SDS011;52812;48.960;9.108;2022-12-18T02:42:37;74.50;;;27.95;;
3085;SDS011;52812;48.960;9.108;2022-12-18T02:45:03;75.82;;;28.30;;
3085;SDS011;52812;48.960;9.108;2022-12-18T02:47:30;60.15;;;27.70;;
3085;SDS011;52812;48.960;9.108;2022-12-18T02:50:05;66.53;;;29.42;;
3085;SDS011;52812;48.960;9.108;2022-12-18T02:52:45;62.00;;;25.98;;
3085;SDS011;52812;48.960;9.108;2022-12-18T02:55:30;66.90;;;25.73;;
3085;SDS011;52812;48.960;9.108;2022-12-18T02:58:14;60.55;;;24.48;;
3085;SDS011;52812;48.960;9.108;2022-12-18T03:03:35;69.97;;;26.25;;
3085;SDS011;52812;48.960;9.108;2022-12-18T03:06:07;66.30;;;24.98;;
3085;SDS011;52812;48.960;9.108;2022-12-18T03:08:44;62.40;;;25.65;;
3085;SDS011;52812;48.960;9.108;2022-12-18T03:11:13;71.93;;;28.50;;
3085;SDS011;52812;48.960;9.108;2022-12-18T03:13:41;76.00;;;29.45;;
3085;SDS011;52812;48.960;9.108;2022-12-18T03:16:18;71.65;;;28.45;;
3085;SDS011;52812;48.960;9.108;2022-12-18T03:18:57;72.93;;;28.98;;
3085;SDS011;52812;48.960;9.108;2022-12-18T03:21:33;71.25;;;31.08;;
3085;SDS011;52812;48.960;9.108;2022-12-18T03:24:02;78.20;;;30.92;;
3085;SDS011;52812;48.960;9.108;2022-12-18T03:26:32;68.38;;;28.95;;
3085;SDS011;52812;48.960;9.108;2022-12-18T03:29:00;65.70;;;29.48;;
3085;SDS011;52812;48.960;9.108;2022-12-18T03:31:33;73.43;;;29.42;;
3085;SDS011;52812;48.960;9.108;2022-12-18T03:33:59;81.57;;;30.30;;
3085;SDS011;52812;48.960;9.108;2022-12-18T03:36:31;72.35;;;27.73;;
3085;SDS011;52812;48.960;9.108;2022-12-18T03:38:57;71.05;;;28.45;;
3085;SDS011;52812;48.960;9.108;2022-12-18T03:41:29;63.00;;;27.67;;
3085;SDS011;52812;48.960;9.108;2022-12-18T03:44:40;74.15;;;28.42;;
3085;SDS011;52812;48.960;9.108;2022-12-18T03:50:45;75.80;;;27.77;;
3085;SDS011;52812;48.960;9.108;2022-12-18T03:55:50;73.32;;;28.80;;
3085;SDS011;52812;48.960;9.108;2022-12-18T03:58:17;69.47;;;28.48;;
3085;SDS011;52812;48.960;9.108;2022-12-18T04:00:48;68.38;;;29.88;;
3085;SDS011;52812;48.960;9.108;2022-12-18T04:03:16;70.63;;;29.27;;
3085;SDS011;52812;48.960;9.108;2022-12-18T04:05:44;66.43;;;27.40;;
3085;SDS011;52812;48.960;9.108;2022-12-18T04:08:11;74.05;;;28.88;;
3085;SDS011;52812;48.960;9.108;2022-12-18T04:10:38;71.18;;;28.38;;
3085;SDS011;52812;48.960;9.108;2022-12-18T04:13:03;63.80;;;27.93;;
3085;SDS011;52812;48.960;9.108;2022-12-18T04:15:29;71.20;;;29.47;;
3085;SDS011;52812;48.960;9.108;2022-12-18T04:17:56;77.65;;;28.15;;
3085;SDS011;52812;48.960;9.108;2022-12-18T04:20:22;76.10;;;29.47;;
3085;SDS011;52812;48.960;9.108;2022-12-18T04:22:47;85.93;;;32.00;;
3085;SDS011;52812;48.960;9.108;2022-12-18T04:25:13;72.00;;;30.73;;
3085;SDS011;52812;48.960;9.108;2022-12-18T04:27:41;67.33;;;27.53;;
3085;SDS011;52812;48.960;9.108;2022-12-18T04:30:07;64.88;;;26.95;;
3085;SDS011;52812;48.960;9.108;2022-12-18T04:32:33;70.85;;;28.55;;
3085;SDS011;52812;48.960;9.108;2022-12-18T04:34:59;82.47;;;29.60;;
3085;SDS011;52812;48.960;9.108;2022-12-18T04:37:25;62.53;;;27.13;;
3085;SDS011;52812;48.960;9.108;2022-12-18T04:39:50;69.20;;;28.23;;
3085;SDS011;52812;48.960;9.108;2022-12-18T04:42:16;69.17;;;28.07;;
3085;SDS011;52812;48.960;9.108;2022-12-18T04:44:41;64.43;;;28.07;;
3085;SDS011;52812;48.960;9.108;2022-12-18T04:47:07;68.80;;;29.07;;
3085;SDS011;52812;48.960;9.108;2022-12-18T04:49:32;68.27;;;29.27;;
3085;SDS011;52812;48.960;9.108;2022-12-18T04:51:58;69.80;;;28.00;;
3085;SDS011;52812;48.960;9.108;2022-12-18T04:54:23;69.03;;;28.00;;
3085;SDS011;52812;48.960;9.108;2022-12-18T04:56:49;76.10;;;30.23;;
3085;SDS011;52812;48.960;9.108;2022-12-18T04:59:14;70.80;;;29.00;;
3085;SDS011;52812;48.960;9.108;2022-12-18T05:01:40;73.10;;;28.87;;
3085;SDS011;52812;48.960;9.108;2022-12-18T05:04:05;77.90;;;31.40;;
3085;SDS011;52812;48.960;9.108;2022-12-18T05:06:31;74.00;;;29.47;;
3085;SDS011;52812;48.960;9.108;2022-12-18T05:08:57;75.13;;;29.00;;
3085;SDS011;52812;48.960;9.108;2022-12-18T05:11:22;69.17;;;28.87;;
3085;SDS011;52812;48.960;9.108;2022-12-18T05:13:48;75.80;;;29.10;;
3085;SDS011;52812;48.960;9.108;2022-12-18T05:16:14;75.93;;;30.47;;
3085;SDS011;52812;48.960;9.108;2022-12-18T05:18:40;75.57;;;28.93;;
3085;SDS011;52812;48.960;9.108;2022-12-18T05:21:06;65.82;;;27.23;;
3085;SDS011;52812;48.960;9.108;2022-12-18T05:23:31;69.70;;;27.60;;
3085;SDS011;52812;48.960;9.108;2022-12-18T05:25:58;77.53;;;28.80;;
3085;SDS011;52812;48.960;9.108;2022-12-18T05:28:26;62.72;;;26.23;;
3085;SDS011;52812;48.960;9.108;2022-12-18T05:30:54;63.30;;;25.90;;
3085;SDS011;52812;48.960;9.108;2022-12-18T05:33:22;72.90;;;29.05;;
3085;SDS011;52812;48.960;9.108;2022-12-18T05:35:52;64.10;;;27.50;;
3085;SDS011;52812;48.960;9.108;2022-12-18T05:38:20;60.03;;;26.35;;
3085;SDS011;52812;48.960;9.108;2022-12-18T05:40:47;64.97;;;26.88;;
3085;SDS011;52812;48.960;9.108;2022-12-18T05:43:13;65.35;;;28.33;;
3085;SDS011;52812;48.960;9.108;2022-12-18T05:45:42;61.77;;;26.77;;
3085;SDS011;52812;48.960;9.108;2022-12-18T05:48:08;71.55;;;27.40;;
3085;SDS011;52812;48.960;9.108;2022-12-18T05:50:38;57.40;;;26.73;;
3085;SDS011;52812;48.960;9.108;2022-12-18T05:53:05;70.75;;;27.85;;
3085;SDS011;52812;48.960;9.108;2022-12-18T05:55:34;59.75;;;25.98;;
3085;SDS011;52812;48.960;9.108;2022-12-18T05:58:01;53.30;;;24.33;;
3085;SDS011;52812;48.960;9.108;2022-12-18T06:00:28;61.35;;;25.83;;
3085;SDS011;52812;48.960;9.108;2022-12-18T06:02:53;61.70;;;25.40;;
3085;SDS011;52812;48.960;9.108;2022-12-18T06:05:19;63.23;;;25.43;;
3085;SDS011;52812;48.960;9.108;2022-12-18T06:07:45;61.10;;;26.50;;
3085;SDS011;52812;48.960;9.108;2022-12-18T06:10:10;62.77;;;26.87;;
3085;SDS011;52812;48.960;9.108;2022-12-18T06:12:36;55.33;;;23.03;;
3085;SDS011;52812;48.960;9.108;2022-12-18T06:15:02;60.40;;;26.00;;
3085;SDS011;52812;48.960;9.108;2022-12-18T06:17:31;51.88;;;24.75;;
3085;SDS011;52812;48.960;9.108;2022-12-18T06:19:58;68.85;;;27.02;;
3085;SDS011;52812;48.960;9.108;2022-12-18T06:22:24;61.40;;;24.50;;
3085;SDS011;52812;48.960;9.108;2022-12-18T06:24:50;52.47;;;24.75;;
3085;SDS011;52812;48.960;9.108;2022-12-18T06:27:30;57.25;;;25.23;;
3085;SDS011;52812;48.960;9.108;2022-12-18T06:29:55;61.30;;;24.50;;
3085;SDS011;52812;48.960;9.108;2022-12-18T06:32:21;61.13;;;24.63;;
3085;SDS011;52812;48.960;9.108;2022-12-18T06:34:47;59.13;;;24.10;;
3085;SDS011;52812;48.960;9.108;2022-12-18T06:37:12;62.47;;;24.57;;
3085;SDS011;52812;48.960;9.108;2022-12-18T06:39:38;50.33;;;24.70;;
3085;SDS011;52812;48.960;9.108;2022-12-18T06:42:04;53.90;;;23.53;;
3085;SDS011;52812;48.960;9.108;2022-12-18T06:44:29;64.87;;;26.70;;
3085;SDS011;52812;48.960;9.108;2022-12-18T06:46:55;58.77;;;24.60;;
3085;SDS011;52812;48.960;9.108;2022-12-18T06:49:21;56.13;;;23.50;;
3085;SDS011;52812;48.960;9.108;2022-12-18T06:51:46;51.43;;;22.77;;
3085;SDS011;52812;48.960;9.108;2022-12-18T06:54:12;51.07;;;24.70;;
3085;SDS011;52812;48.960;9.108;2022-12-18T06:56:38;67.85;;;28.00;;
3085;SDS011;52812;48.960;9.108;2022-12-18T06:59:03;54.53;;;26.20;;
3085;SDS011;52812;48.960;9.108;2022-12-18T07:01:29;70.90;;;26.87;;
3085;SDS011;52812;48.960;9.108;2022-12-18T07:03:55;56.90;;;24.60;;
3085;SDS011;52812;48.960;9.108;2022-12-18T07:06:22;52.63;;;23.90;;
3085;SDS011;52812;48.960;9.108;2022-12-18T07:08:50;58.47;;;25.50;;
3085;SDS011;52812;48.960;9.108;2022-12-18T07:11:17;59.65;;;24.35;;
3085;SDS011;52812;48.960;9.108;2022-12-18T07:13:43;56.10;;;25.33;;
3085;SDS011;52812;48.960;9.108;2022-12-18T07:18:42;57.63;;;24.05;;
3085;SDS011;52812;48.960;9.108;2022-12-18T07:21:09;54.03;;;21.48;;
3085;SDS011;52812;48.960;9.108;2022-12-18T07:23:38;51.63;;;22.30;;
3085;SDS011;52812;48.960;9.108;2022-12-18T07:26:08;55.30;;;23.47;;
3085;SDS011;52812;48.960;9.108;2022-12-18T07:28:36;57.63;;;23.67;;
3085;SDS011;52812;48.960;9.108;2022-12-18T07:31:03;51.20;;;21.48;;
3085;SDS011;52812;48.960;9.108;2022-12-18T07:33:37;56.33;;;20.52;;
3085;SDS011;52812;48.960;9.108;2022-12-18T07:36:03;56.47;;;22.87;;
3085;SDS011;52812;48.960;9.108;2022-12-18T07:38:30;47.38;;;21.85;;
3085;SDS011;52812;48.960;9.108;2022-12-18T07:41:15;40.28;;;20.85;;
3085;SDS011;52812;48.960;9.108;2022-12-18T07:43:42;47.13;;;20.80;;
3085;SDS011;52812;48.960;9.108;2022-12-18T07:46:11;48.10;;;20.73;;
3085;SDS011;52812;48.960;9.108;2022-12-18T07:48:39;43.95;;;19.58;;
3085;SDS011;52812;48.960;9.108;2022-12-18T07:51:06;53.38;;;22.60;;
3085;SDS011;52812;48.960;9.108;2022-12-18T07:53:33;48.75;;;22.70;;
3085;SDS011;52812;48.960;9.108;2022-12-18T07:56:01;56.97;;;24.38;;
3085;SDS011;52812;48.960;9.108;2022-12-18T07:58:30;54.42;;;24.92;;
3085;SDS011;52812;48.960;9.108;2022-12-18T08:01:06;60.75;;;25.67;;
3085;SDS011;52812;48.960;9.108;2022-12-18T08:03:34;59.72;;;24.60;;
3085;SDS011;52812;48.960;9.108;2022-12-18T08:06:03;58.90;;;24.77;;
3085;SDS011;52812;48.960;9.108;2022-12-18T08:08:31;60.38;;;25.05;;
3085;SDS011;52812;48.960;9.108;2022-12-18T08:10:58;113.20;;;31.77;;
3085;SDS011;52812;48.960;9.108;2022-12-18T08:13:24;60.53;;;25.20;;
3085;SDS011;52812;48.960;9.108;2022-12-18T08:18:22;60.58;;;25.10;;
3085;SDS011;52812;48.960;9.108;2022-12-18T08:20:48;58.93;;;25.77;;
3085;SDS011;52812;48.960;9.108;2022-12-18T08:23:14;59.73;;;26.47;;
3085;SDS011;52812;48.960;9.108;2022-12-18T08:25:40;66.03;;;28.23;;
3085;SDS011;52812;48.960;9.108;2022-12-18T08:28:05;64.17;;;25.33;;
3085;SDS011;52812;48.960;9.108;2022-12-18T08:30:31;64.27;;;26.60;;
3085;SDS011;52812;48.960;9.108;2022-12-18T08:32:56;65.50;;;27.17;;
3085;SDS011;52812;48.960;9.108;2022-12-18T08:35:23;61.08;;;26.33;;
3085;SDS011;52812;48.960;9.108;2022-12-18T08:37:48;60.07;;;27.03;;
3085;SDS011;52812;48.960;9.108;2022-12-18T08:40:14;59.90;;;25.30;;
3085;SDS011;52812;48.960;9.108;2022-12-18T08:42:40;54.43;;;27.17;;
3085;SDS011;52812;48.960;9.108;2022-12-18T08:45:24;63.58;;;27.42;;
3085;SDS011;52812;48.960;9.108;2022-12-18T08:47:51;68.80;;;29.73;;
3085;SDS011;52812;48.960;9.108;2022-12-18T08:50:16;69.90;;;29.70;;
3085;SDS011;52812;48.960;9.108;2022-12-18T08:52:42;66.27;;;29.67;;
3085;SDS011;52812;48.960;9.108;2022-12-18T08:55:08;57.10;;;27.10;;
3085;SDS011;52812;48.960;9.108;2022-12-18T08:57:35;61.63;;;27.17;;
3085;SDS011;52812;48.960;9.108;2022-12-18T09:00:00;58.50;;;26.40;;
3085;SDS011;52812;48.960;9.108;2022-12-18T09:02:26;63.13;;;26.90;;
3085;SDS011;52812;48.960;9.108;2022-12-18T09:04:52;72.13;;;30.10;;
3085;SDS011;52812;48.960;9.108;2022-12-18T09:07:17;65.33;;;30.47;;
3085;SDS011;52812;48.960;9.108;2022-12-18T09:09:43;71.83;;;28.63;;
3085;SDS011;52812;48.960;9.108;2022-12-18T09:12:09;64.67;;;29.63;;
3085;SDS011;52812;48.960;9.108;2022-12-18T09:14:35;66.17;;;27.80;;
3085;SDS011;52812;48.960;9.108;2022-12-18T09:17:01;58.20;;;27.95;;
3085;SDS011;52812;48.960;9.108;2022-12-18T09:19:26;57.90;;;27.20;;
3085;SDS011;52812;48.960;9.108;2022-12-18T09:21:52;51.67;;;24.80;;
3085;SDS011;52812;48.960;9.108;2022-12-18T09:24:18;51.37;;;25.23;;
3085;SDS011;52812;48.960;9.108;2022-12-18T09:26:43;57.63;;;24.27;;
3085;SDS011;52812;48.960;9.108;2022-12-18T09:29:09;55.67;;;24.95;;
3085;SDS011;52812;48.960;9.108;2022-12-18T09:31:35;61.53;;;26.20;;
3085;SDS011;52812;48.960;9.108;2022-12-18T09:34:02;62.60;;;25.10;;
3085;SDS011;52812;48.960;9.108;2022-12-18T09:36:31;56.70;;;27.33;;
3085;SDS011;52812;48.960;9.108;2022-12-18T09:38:56;58.10;;;26.77;;
3085;SDS011;52812;48.960;9.108;2022-12-18T09:47:13;56.45;;;25.60;;
3085;SDS011;52812;48.960;9.108;2022-12-18T09:50:05;63.08;;;26.85;;
3085;SDS011;52812;48.960;9.108;2022-12-18T09:52:49;56.08;;;25.20;;
3085;SDS011;52812;48.960;9.108;2022-12-18T09:55:34;56.35;;;27.05;;
3085;SDS011;52812;48.960;9.108;2022-12-18T10:00:40;63.65;;;27.23;;
3085;SDS011;52812;48.960;9.108;2022-12-18T10:03:11;68.50;;;27.23;;
3085;SDS011;52812;48.960;9.108;2022-12-18T10:19:58;64.65;;;26.35;;
3085;SDS011;52812;48.960;9.108;2022-12-18T10:25:21;59.78;;;25.15;;
3085;SDS011;52812;48.960;9.108;2022-12-18T10:27:57;58.20;;;25.77;;
3085;SDS011;52812;48.960;9.108;2022-12-18T10:30:26;60.17;;;25.20;;
3085;SDS011;52812;48.960;9.108;2022-12-18T10:32:52;61.80;;;26.30;;
3085;SDS011;52812;48.960;9.108;2022-12-18T10:35:25;62.17;;;25.35;;
3085;SDS011;52812;48.960;9.108;2022-12-18T10:38:02;56.63;;;25.80;;
3085;SDS011;52812;48.960;9.108;2022-12-18T10:40:28;56.45;;;24.85;;
3085;SDS011;52812;48.960;9.108;2022-12-18T10:43:02;59.40;;;26.40;;
3085;SDS011;52812;48.960;9.108;2022-12-18T10:45:39;56.65;;;25.83;;
3085;SDS011;52812;48.960;9.108;2022-12-18T10:48:16;63.70;;;27.00;;
3085;SDS011;52812;48.960;9.108;2022-12-18T10:50:46;55.75;;;26.15;;
3085;SDS011;52812;48.960;9.108;2022-12-18T10:53:17;53.70;;;25.30;;
3085;SDS011;52812;48.960;9.108;2022-12-18T10:55:47;59.80;;;26.25;;
3085;SDS011;52812;48.960;9.108;2022-12-18T11:03:35;55.00;;;26.15;;
3085;SDS011;52812;48.960;9.108;2022-12-18T11:06:02;54.20;;;25.50;;
3085;SDS011;52812;48.960;9.108;2022-12-18T11:08:29;64.20;;;26.15;;
3085;SDS011;52812;48.960;9.108;2022-12-18T11:10:55;59.70;;;26.83;;
3085;SDS011;52812;48.960;9.108;2022-12-18T11:13:22;55.00;;;25.67;;
3085;SDS011;52812;48.960;9.108;2022-12-18T11:15:51;57.58;;;25.90;;
3085;SDS011;52812;48.960;9.108;2022-12-18T11:18:17;58.28;;;25.63;;
3085;SDS011;52812;48.960;9.108;2022-12-18T11:20:52;58.17;;;26.63;;
3085;SDS011;52812;48.960;9.108;2022-12-18T11:23:26;58.55;;;26.65;;
3085;SDS011;52812;48.960;9.108;2022-12-18T11:25:57;54.70;;;26.25;;
3085;SDS011;52812;48.960;9.108;2022-12-18T11:31:17;56.40;;;25.80;;
3085;SDS011;52812;48.960;9.108;2022-12-18T11:36:31;61.83;;;28.70;;
3085;SDS011;52812;48.960;9.108;2022-12-18T11:39:02;56.35;;;26.27;;
3085;SDS011;52812;48.960;9.108;2022-12-18T11:41:46;61.03;;;26.98;;
3085;SDS011;52812;48.960;9.108;2022-12-18T11:44:36;58.20;;;26.42;;
3085;SDS011;52812;48.960;9.108;2022-12-18T11:50:18;56.63;;;26.10;;
3085;SDS011;52812;48.960;9.108;2022-12-18T11:52:47;61.90;;;26.25;;
3085;SDS011;52812;48.960;9.108;2022-12-18T11:55:23;54.33;;;24.40;;
3085;SDS011;52812;48.960;9.108;2022-12-18T12:00:58;57.03;;;26.50;;
3085;SDS011;52812;48.960;9.108;2022-12-18T12:03:50;52.92;;;24.98;;
3085;SDS011;52812;48.960;9.108;2022-12-18T12:20:08;55.95;;;25.60;;
3085;SDS011;52812;48.960;9.108;2022-12-18T12:25:49;55.10;;;24.95;;
3085;SDS011;52812;48.960;9.108;2022-12-18T12:34:00;52.20;;;25.15;;
3085;SDS011;52812;48.960;9.108;2022-12-18T12:39:32;53.75;;;25.23;;
3085;SDS011;52812;48.960;9.108;2022-12-18T12:42:04;61.20;;;25.77;;
3085;SDS011;52812;48.960;9.108;2022-12-18T12:44:54;51.25;;;23.75;;
3085;SDS011;52812;48.960;9.108;2022-12-18T12:47:27;51.97;;;24.10;;
3085;SDS011;52812;48.960;9.108;2022-12-18T12:49:58;58.33;;;24.88;;
3085;SDS011;52812;48.960;9.108;2022-12-18T12:52:31;53.30;;;25.23;;
3085;SDS011;52812;48.960;9.108;2022-12-18T12:55:03;50.45;;;23.42;;
3085;SDS011;52812;48.960;9.108;2022-12-18T12:57:36;47.58;;;23.70;;
3085;SDS011;52812;48.960;9.108;2022-12-18T13:00:09;51.15;;;23.98;;
3085;SDS011;52812;48.960;9.108;2022-12-18T13:02:49;51.35;;;23.75;;
3085;SDS011;52812;48.960;9.108;2022-12-18T13:08:10;50.78;;;23.20;;
3085;SDS011;52812;48.960;9.108;2022-12-18T13:10:40;55.38;;;22.85;;
3085;SDS011;52812;48.960;9.108;2022-12-18T13:23:20;48.40;;;23.80;;
3085;SDS011;52812;48.960;9.108;2022-12-18T13:28:23;50.95;;;22.90;;
3085;SDS011;52812;48.960;9.108;2022-12-18T13:30:59;50.22;;;23.08;;
3085;SDS011;52812;48.960;9.108;2022-12-18T13:38:39;56.70;;;23.55;;
3085;SDS011;52812;48.960;9.108;2022-12-18T13:43:49;47.35;;;22.70;;
3085;SDS011;52812;48.960;9.108;2022-12-18T13:46:47;54.95;;;25.30;;
3085;SDS011;52812;48.960;9.108;2022-12-18T13:52:02;52.13;;;22.77;;
3085;SDS011;52812;48.960;9.108;2022-12-18T13:54:40;62.85;;;26.13;;
3085;SDS011;52812;48.960;9.108;2022-12-18T13:57:26;52.58;;;24.75;;
3085;SDS011;52812;48.960;9.108;2022-12-18T13:59:57;55.38;;;24.50;;
3085;SDS011;52812;48.960;9.108;2022-12-18T14:02:24;58.15;;;25.73;;
3085;SDS011;52812;48.960;9.108;2022-12-18T14:04:52;55.00;;;24.45;;
3085;SDS011;52812;48.960;9.108;2022-12-18T14:07:20;58.15;;;24.77;;
3085;SDS011;52812;48.960;9.108;2022-12-18T14:09:50;60.45;;;25.00;;
3085;SDS011;52812;48.960;9.108;2022-12-18T14:12:20;52.97;;;23.20;;
3085;SDS011;52812;48.960;9.108;2022-12-18T14:17:55;58.37;;;24.80;;
3085;SDS011;52812;48.960;9.108;2022-12-18T14:20:22;53.33;;;25.27;;
3085;SDS011;52812;48.960;9.108;2022-12-18T14:22:50;59.78;;;25.33;;
3085;SDS011;52812;48.960;9.108;2022-12-18T14:25:17;55.77;;;26.37;;
3085;SDS011;52812;48.960;9.108;2022-12-18T14:27:47;63.05;;;26.40;;
3085;SDS011;52812;48.960;9.108;2022-12-18T14:33:05;56.35;;;26.65;;
3085;SDS011;52812;48.960;9.108;2022-12-18T14:35:39;56.50;;;25.70;;
3085;SDS011;52812;48.960;9.108;2022-12-18T14:38:18;63.67;;;26.98;;
3085;SDS011;52812;48.960;9.108;2022-12-18T14:40:52;57.25;;;26.17;;
3085;SDS011;52812;48.960;9.108;2022-12-18T14:43:41;59.15;;;28.70;;
3085;SDS011;52812;48.960;9.108;2022-12-18T14:48:52;61.17;;;28.73;;
3085;SDS011;52812;48.960;9.108;2022-12-18T14:51:22;57.88;;;26.80;;
3085;SDS011;52812;48.960;9.108;2022-12-18T14:53:53;53.95;;;26.42;;
3085;SDS011;52812;48.960;9.108;2022-12-18T15:01:20;64.03;;;29.40;;
3085;SDS011;52812;48.960;9.108;2022-12-18T15:03:50;63.72;;;28.33;;
3085;SDS011;52812;48.960;9.108;2022-12-18T15:06:26;71.20;;;31.10;;
3085;SDS011;52812;48.960;9.108;2022-12-18T15:08:52;60.97;;;27.88;;
3085;SDS011;52812;48.960;9.108;2022-12-18T15:11:25;65.13;;;29.77;;
3085;SDS011;52812;48.960;9.108;2022-12-18T15:13:58;63.85;;;30.10;;
3085;SDS011;52812;48.960;9.108;2022-12-18T15:16:25;63.15;;;28.25;;
3085;SDS011;52812;48.960;9.108;2022-12-18T15:18:54;62.42;;;27.27;;
3085;SDS011;52812;48.960;9.108;2022-12-18T15:21:20;59.43;;;27.30;;
3085;SDS011;52812;48.960;9.108;2022-12-18T15:23:49;61.53;;;28.75;;
3085;SDS011;52812;48.960;9.108;2022-12-18T15:26:18;92.53;;;46.28;;
3085;SDS011;52812;48.960;9.108;2022-12-18T15:28:48;77.85;;;36.80;;
3085;SDS011;52812;48.960;9.108;2022-12-18T15:33:46;67.40;;;28.00;;
3085;SDS011;52812;48.960;9.108;2022-12-18T15:36:50;59.45;;;26.85;;
3085;SDS011;52812;48.960;9.108;2022-12-18T15:39:18;60.10;;;27.67;;
3085;SDS011;52812;48.960;9.108;2022-12-18T15:41:44;61.40;;;27.60;;
3085;SDS011;52812;48.960;9.108;2022-12-18T15:44:30;65.63;;;27.92;;
3085;SDS011;52812;48.960;9.108;2022-12-18T15:46:56;75.27;;;31.13;;
3085;SDS011;52812;48.960;9.108;2022-12-18T15:49:22;63.42;;;27.58;;
3085;SDS011;52812;48.960;9.108;2022-12-18T15:51:57;58.53;;;25.10;;
3085;SDS011;52812;48.960;9.108;2022-12-18T15:54:24;56.97;;;26.02;;
3085;SDS011;52812;48.960;9.108;2022-12-18T15:57:10;55.75;;;25.73;;
3085;SDS011;52812;48.960;9.108;2022-12-18T15:59:48;59.67;;;27.40;;
3085;SDS011;52812;48.960;9.108;2022-12-18T16:02:19;65.93;;;29.38;;
3085;SDS011;52812;48.960;9.108;2022-12-18T16:04:47;66.68;;;28.38;;
3085;SDS011;52812;48.960;9.108;2022-12-18T16:07:13;68.50;;;29.15;;
3085;SDS011;52812;48.960;9.108;2022-12-18T16:09:39;66.80;;;30.17;;
3085;SDS011;52812;48.960;9.108;2022-12-18T16:12:06;71.55;;;27.90;;
3085;SDS011;52812;48.960;9.108;2022-12-18T16:14:40;60.83;;;28.05;;
3085;SDS011;52812;48.960;9.108;2022-12-18T16:17:09;68.03;;;29.37;;
3085;SDS011;52812;48.960;9.108;2022-12-18T16:19:36;62.97;;;28.63;;
3085;SDS011;52812;48.960;9.108;2022-12-18T16:22:02;71.33;;;29.57;;
3085;SDS011;52812;48.960;9.108;2022-12-18T16:24:29;62.03;;;28.90;;
3085;SDS011;52812;48.960;9.108;2022-12-18T16:26:57;67.85;;;29.65;;
3085;SDS011;52812;48.960;9.108;2022-12-18T16:29:24;71.03;;;29.33;;
3085;SDS011;52812;48.960;9.108;2022-12-18T16:31:59;60.53;;;28.23;;
3085;SDS011;52812;48.960;9.108;2022-12-18T16:37:03;63.08;;;29.13;;
3085;SDS011;52812;48.960;9.108;2022-12-18T16:39:30;68.07;;;31.70;;
3085;SDS011;52812;48.960;9.108;2022-12-18T16:41:56;63.65;;;29.15;;
3085;SDS011;52812;48.960;9.108;2022-12-18T16:44:22;61.17;;;28.23;;
3085;SDS011;52812;48.960;9.108;2022-12-18T16:46:48;60.37;;;26.40;;
3085;SDS011;52812;48.960;9.108;2022-12-18T16:49:15;54.90;;;26.00;;
3085;SDS011;52812;48.960;9.108;2022-12-18T16:51:41;57.15;;;27.45;;
3085;SDS011;52812;48.960;9.108;2022-12-18T16:54:07;59.85;;;27.10;;
3085;SDS011;52812;48.960;9.108;2022-12-18T16:56:33;64.30;;;29.10;;
3085;SDS011;52812;48.960;9.108;2022-12-18T16:59:00;61.27;;;29.40;;
3085;SDS011;52812;48.960;9.108;2022-12-18T17:01:27;61.50;;;27.55;;
3085;SDS011;52812;48.960;9.108;2022-12-18T17:03:55;64.15;;;30.58;;
3085;SDS011;52812;48.960;9.108;2022-12-18T17:06:22;56.42;;;26.13;;